createdAt,value
2022-10-11T00:00:05.313Z,12.70
2022-10-11T00:02:32.155Z,12.68
2022-10-11T00:05:01.975Z,12.65
2022-10-11T00:07:28.931Z,12.61
2022-10-11T00:09:55.884Z,12.59
2022-10-11T00:12:22.690Z,12.56
2022-10-11T00:14:49.568Z,12.52
2022-10-11T00:17:17.220Z,12.47
2022-10-11T00:19:44.361Z,12.45
2022-10-11T00:22:11.516Z,12.44
2022-10-11T00:24:38.714Z,12.43
2022-10-11T00:27:15.949Z,12.42
2022-10-11T00:29:42.809Z,12.39
2022-10-11T00:32:09.719Z,12.37
2022-10-11T00:34:36.836Z,12.36
2022-10-11T00:37:10.943Z,12.33
2022-10-11T00:39:38.207Z,12.31
2022-10-11T00:42:05.237Z,12.25
2022-10-11T00:44:33.802Z,12.23
2022-10-11T00:47:13.858Z,12.21
2022-10-11T00:49:44.700Z,12.19
2022-10-11T00:52:14.481Z,12.15
2022-10-11T00:54:43.795Z,12.16
2022-10-11T00:57:22.756Z,12.18
2022-10-11T00:59:52.891Z,12.18
2022-10-11T01:02:21.217Z,12.16
2022-10-11T01:04:57.312Z,12.15
2022-10-11T01:07:33.595Z,12.12
2022-10-11T01:10:00.794Z,12.12
2022-10-11T01:12:30.460Z,12.13
2022-10-11T01:15:06.937Z,12.12
2022-10-11T01:17:33.748Z,12.10
2022-10-11T01:20:32.197Z,12.05
2022-10-11T01:23:32.991Z,12.03
2022-10-11T01:26:26.786Z,11.98
2022-10-11T01:29:18.212Z,11.94
2022-10-11T01:32:11.025Z,11.88
2022-10-11T01:34:57.450Z,11.83
2022-10-11T01:37:36.558Z,11.80
2022-10-11T01:40:18.508Z,11.78
2022-10-11T01:42:46.826Z,11.72
2022-10-11T01:45:17.455Z,11.73
2022-10-11T01:47:46.005Z,11.70
2022-10-11T01:50:39.083Z,11.65
2022-10-11T01:53:37.486Z,11.65
2022-10-11T01:56:22.926Z,11.65
2022-10-11T01:59:08.485Z,11.62
2022-10-11T02:01:44.345Z,11.53
2022-10-11T02:04:29.757Z,11.51
2022-10-11T02:07:13.618Z,11.50
2022-10-11T02:09:47.099Z,11.49
2022-10-11T02:12:20.187Z,11.45
2022-10-11T02:14:50.378Z,11.44
2022-10-11T02:17:22.310Z,11.41
2022-10-11T02:19:53.229Z,11.39
2022-10-11T02:22:24.722Z,11.38
2022-10-11T02:24:55.746Z,11.37
2022-10-11T02:27:28.105Z,11.34
2022-10-11T02:29:59.977Z,11.32
2022-10-11T02:32:29.860Z,11.28
2022-10-11T02:35:00.297Z,11.29
2022-10-11T02:37:36.281Z,11.30
2022-10-11T02:40:23.775Z,11.33
2022-10-11T02:43:05.159Z,11.34
2022-10-11T02:45:37.410Z,11.32
2022-10-11T02:48:06.774Z,11.28
2022-10-11T02:50:34.166Z,11.25
2022-10-11T02:53:00.900Z,11.18
2022-10-11T02:55:27.711Z,11.18
2022-10-11T02:57:54.494Z,11.17
2022-10-11T03:00:21.339Z,11.18
2022-10-11T03:02:48.240Z,11.20
2022-10-11T03:05:15.017Z,11.15
2022-10-11T03:07:41.901Z,11.17
2022-10-11T03:10:09.106Z,11.16
2022-10-11T03:12:36.076Z,11.15
2022-10-11T03:15:02.838Z,11.16
2022-10-11T03:17:36.606Z,11.17
2022-10-11T03:20:38.444Z,11.14
2022-10-11T03:23:31.943Z,11.15
2022-10-11T03:25:58.777Z,11.16
2022-10-11T03:28:25.541Z,11.13
2022-10-11T03:30:52.706Z,11.10
2022-10-11T03:33:20.320Z,11.09
2022-10-11T03:35:48.282Z,11.07
2022-10-11T03:38:18.715Z,11.04
2022-10-11T03:40:45.761Z,11.02
2022-10-11T03:43:13.312Z,11.00
2022-10-11T03:45:42.582Z,10.99
2022-10-11T03:48:09.716Z,10.97
2022-10-11T03:50:37.734Z,10.94
2022-10-11T03:53:06.438Z,10.90
2022-10-11T03:55:33.215Z,10.89
2022-10-11T03:57:59.952Z,10.86
2022-10-11T04:00:26.778Z,10.84
2022-10-11T04:02:53.635Z,10.82
2022-10-11T04:05:20.653Z,10.80
2022-10-11T04:07:47.430Z,10.79
2022-10-11T04:10:14.481Z,10.80
2022-10-11T04:12:41.312Z,10.80
2022-10-11T04:15:08.427Z,10.77
2022-10-11T04:17:35.210Z,10.76
2022-10-11T04:20:01.929Z,10.76
2022-10-11T04:22:28.751Z,10.79
2022-10-11T04:24:55.565Z,10.81
2022-10-11T04:27:22.501Z,10.78
2022-10-11T04:29:49.263Z,10.78
2022-10-11T04:32:15.989Z,10.76
2022-10-11T04:34:42.737Z,10.74
2022-10-11T04:37:15.590Z,10.72
2022-10-11T04:39:42.408Z,10.69
2022-10-11T04:42:09.146Z,10.67
2022-10-11T04:44:36.021Z,10.66
2022-10-11T04:47:02.846Z,10.67
2022-10-11T04:49:29.580Z,10.67
2022-10-11T04:51:56.430Z,10.67
2022-10-11T04:54:26.041Z,10.65
2022-10-11T04:56:52.833Z,10.63
2022-10-11T04:59:19.609Z,10.61
2022-10-11T05:01:46.419Z,10.64
2022-10-11T05:04:13.530Z,10.60
2022-10-11T05:06:40.397Z,10.57
2022-10-11T05:09:07.207Z,10.51
2022-10-11T05:11:33.920Z,10.52
2022-10-11T05:14:00.818Z,10.52
2022-10-11T05:16:28.302Z,10.53
2022-10-11T05:18:55.129Z,10.52
2022-10-11T05:21:24.735Z,10.48
2022-10-11T05:23:53.214Z,10.48
2022-10-11T05:26:21.386Z,10.50
2022-10-11T05:28:48.448Z,10.50
2022-10-11T05:31:16.383Z,10.48
2022-10-11T05:33:43.137Z,10.52
2022-10-11T05:36:10.688Z,10.55
2022-10-11T05:38:37.699Z,10.55
2022-10-11T05:41:05.646Z,10.51
2022-10-11T05:43:32.562Z,10.49
2022-10-11T05:45:59.460Z,10.49
2022-10-11T05:48:26.973Z,10.48
2022-10-11T05:51:03.302Z,10.49
2022-10-11T05:53:30.480Z,10.49
2022-10-11T05:55:57.870Z,10.47
2022-10-11T05:58:25.052Z,10.47
2022-10-11T06:00:52.120Z,10.47
2022-10-11T06:03:21.217Z,10.46
2022-10-11T06:05:48.024Z,10.50
2022-10-11T06:08:16.126Z,10.52
2022-10-11T06:10:42.945Z,10.52
2022-10-11T06:13:09.758Z,10.50
2022-10-11T06:15:39.310Z,10.50
2022-10-11T06:18:06.081Z,10.49
2022-10-11T06:20:32.969Z,10.48
2022-10-11T06:23:00.121Z,10.49
2022-10-11T06:25:27.059Z,10.47
2022-10-11T06:27:53.943Z,10.46
2022-10-11T06:30:20.696Z,10.45
2022-10-11T06:32:47.625Z,10.43
2022-10-11T06:35:14.680Z,10.43
2022-10-11T06:37:41.537Z,10.43
2022-10-11T06:40:09.083Z,10.45
2022-10-11T06:42:37.339Z,10.47
2022-10-11T06:45:04.508Z,10.49
2022-10-11T06:47:31.240Z,10.50
2022-10-11T06:49:58.576Z,10.51
2022-10-11T06:52:25.399Z,10.51
2022-10-11T06:54:52.147Z,10.49
2022-10-11T06:57:22.017Z,10.48
2022-10-11T06:59:48.908Z,10.49
2022-10-11T07:02:15.825Z,10.50
2022-10-11T07:04:42.624Z,10.50
2022-10-11T07:07:15.247Z,10.50
2022-10-11T07:09:42.162Z,10.50
2022-10-11T07:12:09.361Z,10.48
2022-10-11T07:14:36.274Z,10.49
2022-10-11T07:17:03.457Z,10.49
2022-10-11T07:19:30.422Z,10.47
2022-10-11T07:21:57.223Z,10.48
2022-10-11T07:24:23.978Z,10.47
2022-10-11T07:26:51.069Z,10.46
2022-10-11T07:29:18.118Z,10.45
2022-10-11T07:31:44.996Z,10.44
2022-10-11T07:34:12.207Z,10.39
2022-10-11T07:36:39.022Z,10.37
2022-10-11T07:39:07.724Z,10.38
2022-10-11T07:41:35.084Z,10.41
2022-10-11T07:44:02.008Z,10.43
2022-10-11T07:46:28.788Z,10.43
2022-10-11T07:48:55.721Z,10.45
2022-10-11T07:51:24.039Z,10.49
2022-10-11T07:53:56.058Z,10.57
2022-10-11T07:56:29.431Z,10.61
2022-10-11T07:59:03.767Z,10.67
2022-10-11T08:01:31.437Z,10.77
2022-10-11T08:03:58.998Z,10.82
2022-10-11T08:06:30.690Z,10.84
2022-10-11T08:09:01.200Z,10.85
2022-10-11T08:11:34.778Z,10.82
2022-10-11T08:14:02.597Z,10.84
2022-10-11T08:16:29.490Z,10.88
2022-10-11T08:18:57.355Z,10.92
2022-10-11T08:21:24.643Z,10.94
2022-10-11T08:23:51.394Z,10.97
2022-10-11T08:26:18.771Z,11.02
2022-10-11T08:28:45.746Z,11.06
2022-10-11T08:31:14.901Z,11.09
2022-10-11T08:33:42.071Z,11.12
2022-10-11T08:36:10.211Z,11.13
2022-10-11T08:38:38.181Z,11.17
2022-10-11T08:41:33.654Z,11.18
2022-10-11T08:44:13.342Z,11.23
2022-10-11T08:46:43.398Z,11.26
2022-10-11T08:49:13.757Z,11.32
2022-10-11T08:52:09.048Z,11.35
2022-10-11T08:54:45.600Z,11.37
2022-10-11T08:57:25.062Z,11.45
2022-10-11T08:59:59.296Z,11.51
2022-10-11T09:03:03.053Z,11.58
2022-10-11T09:05:25.886Z,11.65
2022-10-11T09:08:23.922Z,11.75
2022-10-11T09:11:04.647Z,11.85
2022-10-11T09:14:02.104Z,11.95
2022-10-11T09:17:01.589Z,12.08
2022-10-11T09:20:10.244Z,12.18
2022-10-11T09:22:56.124Z,12.32
2022-10-11T09:25:58.361Z,12.39
2022-10-11T09:29:06.092Z,12.43
2022-10-11T09:31:33.896Z,12.44
2022-10-11T09:34:11.969Z,12.47
2022-10-11T09:36:55.176Z,12.52
2022-10-11T09:39:46.068Z,12.57
2022-10-11T09:42:35.545Z,12.60
2022-10-11T09:45:06.285Z,12.66
2022-10-11T09:47:37.211Z,12.66
2022-10-11T09:50:16.545Z,12.68
2022-10-11T09:52:51.422Z,12.70
2022-10-11T09:55:53.858Z,12.76
2022-10-11T09:58:37.690Z,12.81
2022-10-11T10:01:12.543Z,12.88
2022-10-11T10:03:42.162Z,12.95
2022-10-11T10:06:17.510Z,13.02
2022-10-11T10:08:50.291Z,13.09
2022-10-11T10:11:18.769Z,13.17
2022-10-11T10:13:54.556Z,13.25
2022-10-11T10:16:30.886Z,13.35
2022-10-11T10:19:05.259Z,13.42
2022-10-11T10:21:36.278Z,13.49
2022-10-11T10:24:09.807Z,13.55
2022-10-11T10:26:36.704Z,13.58
2022-10-11T10:29:09.401Z,13.65
2022-10-11T10:34:56.988Z,13.77
2022-10-11T10:37:34.910Z,13.83
2022-10-11T10:40:07.705Z,13.89
2022-10-11T10:42:34.931Z,13.97
2022-10-11T10:45:13.061Z,13.99
2022-10-11T10:47:59.461Z,14.03
2022-10-11T10:50:39.994Z,14.10
2022-10-11T10:53:27.613Z,14.15
2022-10-11T10:56:06.572Z,14.21
2022-10-11T10:58:53.404Z,14.29
2022-10-11T11:01:34.155Z,14.34
2022-10-11T11:04:27.039Z,14.40
2022-10-11T11:07:20.261Z,14.45
2022-10-11T11:10:16.524Z,14.47
2022-10-11T11:12:54.257Z,14.52
2022-10-11T11:15:43.684Z,14.55
2022-10-11T11:18:28.661Z,14.53
2022-10-11T11:21:00.026Z,14.53
2022-10-11T11:23:43.824Z,14.53
2022-10-11T11:26:19.903Z,14.55
2022-10-11T11:29:02.768Z,14.60
2022-10-11T11:32:10.337Z,14.65
2022-10-11T11:34:52.254Z,14.69
2022-10-11T11:37:34.332Z,14.71
2022-10-11T11:40:35.241Z,14.77
2022-10-11T11:43:07.614Z,14.82
2022-10-11T11:46:09.815Z,14.87
2022-10-11T11:48:55.655Z,14.88
2022-10-11T11:51:30.719Z,14.90
2022-10-11T11:54:22.635Z,14.96
2022-10-11T11:57:03.274Z,15.05
2022-10-11T11:59:51.654Z,15.05
2022-10-11T12:02:56.582Z,15.06
2022-10-11T12:05:32.017Z,15.08
2022-10-11T12:08:08.473Z,15.07
2022-10-11T12:10:37.897Z,15.06
2022-10-11T12:13:34.898Z,15.05
2022-10-11T12:16:04.493Z,15.08
2022-10-11T12:18:32.558Z,15.11
2022-10-11T12:21:22.225Z,15.13
2022-10-11T12:23:52.817Z,15.17
2022-10-11T12:26:28.391Z,15.25
2022-10-11T12:29:18.945Z,15.30
2022-10-11T12:31:55.968Z,15.35
2022-10-11T12:37:33.416Z,15.46
2022-10-11T12:40:37.286Z,15.47
2022-10-11T12:43:16.253Z,15.49
2022-10-11T12:45:52.076Z,15.51
2022-10-11T12:48:42.582Z,15.54
2022-10-11T12:51:34.156Z,15.58
2022-10-11T12:54:42.200Z,15.63
2022-10-11T12:57:47.630Z,15.62
2022-10-11T13:00:31.405Z,15.61
2022-10-11T13:03:04.990Z,15.60
2022-10-11T13:05:48.766Z,15.59
2022-10-11T13:08:27.111Z,15.60
2022-10-11T13:10:57.339Z,15.63
2022-10-11T13:13:32.275Z,15.63
2022-10-11T13:16:07.336Z,15.59
2022-10-11T13:18:34.473Z,15.58
2022-10-11T13:21:16.578Z,15.60
2022-10-11T13:23:45.012Z,15.62
2022-10-11T13:26:11.795Z,15.64
2022-10-11T13:28:39.075Z,15.68
2022-10-11T13:31:06.499Z,15.73
2022-10-11T13:33:44.058Z,15.75
2022-10-11T13:36:19.707Z,15.79
2022-10-11T13:38:57.515Z,15.83
2022-10-11T13:41:28.330Z,15.86
2022-10-11T13:43:57.545Z,15.88
2022-10-11T13:46:29.701Z,15.92
2022-10-11T13:48:59.824Z,15.94
2022-10-11T13:51:39.527Z,15.98
2022-10-11T13:54:13.074Z,15.98
2022-10-11T13:56:43.424Z,16.00
2022-10-11T13:59:20.450Z,16.02
2022-10-11T14:01:47.658Z,16.03
2022-10-11T14:07:51.804Z,16.00
2022-10-11T14:10:21.856Z,16.01
2022-10-11T14:13:24.213Z,16.03
2022-10-11T14:16:11.200Z,16.02
2022-10-11T14:18:48.941Z,16.06
2022-10-11T14:21:28.458Z,16.05
2022-10-11T14:23:58.876Z,16.05
2022-10-11T14:26:27.539Z,16.07
2022-10-11T14:29:31.936Z,16.08
2022-10-11T14:32:07.929Z,16.09
2022-10-11T14:34:35.602Z,16.09
2022-10-11T14:37:02.662Z,16.08
2022-10-11T14:39:31.973Z,16.10
2022-10-11T14:41:59.558Z,16.11
2022-10-11T14:44:26.577Z,16.14
2022-10-11T14:46:54.710Z,16.15
2022-10-11T14:49:29.256Z,16.14
2022-10-11T14:51:58.922Z,16.15
2022-10-11T14:54:29.237Z,16.14
2022-10-11T14:57:01.806Z,16.13
2022-10-11T14:59:34.695Z,16.12
2022-10-11T15:02:05.552Z,16.14
2022-10-11T15:04:36.459Z,16.12
2022-10-11T15:07:17.436Z,16.10
2022-10-11T15:09:45.554Z,16.08
2022-10-11T15:12:14.402Z,16.08
2022-10-11T15:14:41.197Z,16.09
2022-10-11T15:17:22.737Z,16.08
2022-10-11T15:19:50.927Z,16.09
2022-10-11T15:22:17.772Z,16.08
2022-10-11T15:24:49.371Z,16.03
2022-10-11T15:27:20.027Z,16.01
2022-10-11T15:29:47.244Z,15.98
2022-10-11T15:32:14.014Z,15.95
2022-10-11T15:34:40.791Z,15.94
2022-10-11T15:37:30.219Z,15.93
2022-10-11T15:39:59.480Z,15.91
2022-10-11T15:42:26.297Z,15.90
2022-10-11T15:44:59.312Z,15.86
2022-10-11T15:47:26.335Z,15.86
2022-10-11T15:49:53.112Z,15.85
2022-10-11T15:52:19.877Z,15.83
2022-10-11T15:54:46.601Z,15.86
2022-10-11T15:57:31.024Z,15.86
2022-10-11T16:00:01.549Z,15.86
2022-10-11T16:02:28.720Z,15.84
2022-10-11T16:04:55.477Z,15.83
2022-10-11T16:07:24.146Z,15.82
2022-10-11T16:09:50.956Z,15.82
2022-10-11T16:12:17.843Z,15.80
2022-10-11T16:14:49.751Z,15.78
2022-10-11T16:17:26.518Z,15.77
2022-10-11T16:19:55.041Z,15.74
2022-10-11T16:22:21.950Z,15.72
2022-10-11T16:24:50.692Z,15.69
2022-10-11T16:27:19.013Z,15.65
2022-10-11T16:29:45.948Z,15.62
2022-10-11T16:32:12.832Z,15.60
2022-10-11T16:34:44.474Z,15.59
2022-10-11T16:37:24.411Z,15.57
2022-10-11T16:39:53.926Z,15.55
2022-10-11T16:42:20.780Z,15.52
2022-10-11T16:44:47.715Z,15.52
2022-10-11T16:47:17.051Z,15.50
2022-10-11T16:49:43.824Z,15.46
2022-10-11T16:52:11.223Z,15.44
2022-10-11T16:54:38.303Z,15.42
2022-10-11T16:57:05.092Z,15.40
2022-10-11T16:59:31.898Z,15.38
2022-10-11T17:01:58.758Z,15.36
2022-10-11T17:04:25.540Z,15.34
2022-10-11T17:06:54.384Z,15.30
2022-10-11T17:09:21.578Z,15.27
2022-10-11T17:11:48.426Z,15.24
2022-10-11T17:14:15.253Z,15.22
2022-10-11T17:16:42.558Z,15.17
2022-10-11T17:19:12.421Z,15.14
2022-10-11T17:21:39.547Z,15.11
2022-10-11T17:24:07.437Z,15.07
2022-10-11T17:26:34.256Z,15.02
2022-10-11T17:29:01.387Z,15.00
2022-10-11T17:31:29.933Z,14.96
2022-10-11T17:34:01.052Z,14.94
2022-10-11T17:36:32.013Z,14.91
2022-10-11T17:39:00.268Z,14.87
2022-10-11T17:41:31.812Z,14.84
2022-10-11T17:43:59.636Z,14.80
2022-10-11T17:46:27.862Z,14.75
2022-10-11T17:48:55.779Z,14.72
2022-10-11T17:51:22.939Z,14.70
2022-10-11T17:53:51.119Z,14.68
2022-10-11T17:56:24.041Z,14.68
2022-10-11T17:58:56.393Z,14.65
2022-10-11T18:01:25.650Z,14.62
2022-10-11T18:03:58.497Z,14.60
2022-10-11T18:06:28.823Z,14.59
2022-10-11T18:08:57.504Z,14.57
2022-10-11T18:11:24.679Z,14.56
2022-10-11T18:13:52.993Z,14.53
2022-10-11T18:16:22.508Z,14.52
2022-10-11T18:18:49.360Z,14.51
2022-10-11T18:21:18.585Z,14.49
2022-10-11T18:23:46.979Z,14.46
2022-10-11T18:26:19.168Z,14.45
2022-10-11T18:28:46.155Z,14.45
2022-10-11T18:31:16.853Z,14.42
2022-10-11T18:33:46.138Z,14.41
2022-10-11T18:36:15.450Z,14.40
2022-10-11T18:38:46.522Z,14.38
2022-10-11T18:41:15.493Z,14.35
2022-10-11T18:43:42.940Z,14.35
2022-10-11T18:46:12.716Z,14.32
2022-10-11T18:48:44.335Z,14.31
2022-10-11T18:51:15.066Z,14.28
2022-10-11T18:53:42.328Z,14.28
2022-10-11T18:56:10.835Z,14.27
2022-10-11T18:58:39.069Z,14.29
2022-10-11T19:01:12.628Z,14.27
2022-10-11T19:03:39.525Z,14.23
2022-10-11T19:06:17.011Z,14.21
2022-10-11T19:08:52.823Z,14.19
2022-10-11T19:11:22.349Z,14.15
2022-10-11T19:14:03.171Z,14.12
2022-10-11T19:16:30.652Z,14.08
2022-10-11T19:18:58.079Z,14.05
2022-10-11T19:21:24.867Z,14.03
2022-10-11T19:23:52.253Z,14.00
2022-10-11T19:26:22.302Z,13.97
2022-10-11T19:28:55.359Z,13.95
2022-10-11T19:31:22.177Z,13.93
2022-10-11T19:33:49.776Z,13.90
2022-10-11T19:36:17.622Z,13.90
2022-10-11T19:38:46.448Z,13.87
2022-10-11T19:41:14.028Z,13.84
2022-10-11T19:43:40.898Z,13.82
2022-10-11T19:46:09.885Z,13.83
2022-10-11T19:48:38.296Z,13.81
2022-10-11T19:51:07.311Z,13.79
2022-10-11T19:53:34.889Z,13.81
2022-10-11T19:56:04.499Z,13.77
2022-10-11T19:58:31.605Z,13.75
2022-10-11T20:01:10.535Z,13.72
2022-10-11T20:03:38.263Z,13.69
2022-10-11T20:06:07.683Z,13.69
2022-10-11T20:08:35.487Z,13.70
2022-10-11T20:11:05.428Z,13.70
2022-10-11T20:13:35.076Z,13.67
2022-10-11T20:16:06.592Z,13.69
2022-10-11T20:18:33.544Z,13.69
2022-10-11T20:21:06.085Z,13.66
2022-10-11T20:23:33.825Z,13.69
2022-10-11T20:26:15.818Z,13.67
2022-10-11T20:28:43.306Z,13.68
2022-10-11T20:31:15.536Z,13.67
2022-10-11T20:33:42.855Z,13.67
2022-10-11T20:36:20.789Z,13.63
2022-10-11T20:38:49.005Z,13.63
2022-10-11T20:41:25.078Z,13.62
2022-10-11T20:43:54.557Z,13.60
2022-10-11T20:46:24.549Z,13.57
2022-10-11T20:49:00.396Z,13.54
2022-10-11T20:51:30.746Z,13.53
2022-10-11T20:53:59.018Z,13.50
2022-10-11T20:56:25.942Z,13.49
2022-10-11T20:58:58.364Z,13.47
2022-10-11T21:01:28.184Z,13.46
2022-10-11T21:03:57.968Z,13.45
2022-10-11T21:06:25.439Z,13.41
2022-10-11T21:08:54.237Z,13.38
2022-10-11T21:11:21.068Z,13.36
2022-10-11T21:13:47.976Z,13.34
2022-10-11T21:16:16.618Z,13.30
2022-10-11T21:18:43.354Z,13.26
2022-10-11T21:21:12.919Z,13.24
2022-10-11T21:23:40.264Z,13.21
2022-10-11T21:26:09.972Z,13.22
2022-10-11T21:28:36.911Z,13.20
2022-10-11T21:31:08.510Z,13.18
2022-10-11T21:33:35.475Z,13.16
2022-10-11T21:36:08.119Z,13.15
2022-10-11T21:38:35.542Z,13.12
2022-10-11T21:41:04.042Z,13.10
2022-10-11T21:43:31.003Z,13.06
2022-10-11T21:45:58.053Z,13.05
2022-10-11T21:48:24.826Z,13.02
2022-10-11T21:50:55.255Z,13.00
2022-10-11T21:53:22.330Z,12.99
2022-10-11T21:55:49.076Z,12.98
2022-10-11T21:58:15.814Z,12.98
2022-10-11T22:00:42.547Z,12.98
2022-10-11T22:03:09.442Z,12.96
2022-10-11T22:05:36.205Z,12.96
2022-10-11T22:08:02.952Z,13.00
2022-10-11T22:10:29.859Z,12.99
2022-10-11T22:12:56.848Z,13.00
2022-10-11T22:15:23.613Z,12.99
2022-10-11T22:17:50.338Z,12.99
2022-10-11T22:20:17.226Z,12.99
2022-10-11T22:22:43.941Z,12.97
2022-10-11T22:25:10.705Z,12.96
2022-10-11T22:27:37.601Z,12.93
2022-10-11T22:30:04.572Z,12.91
2022-10-11T22:32:31.357Z,12.89
2022-10-11T22:34:58.308Z,12.89
2022-10-11T22:37:26.225Z,12.88
2022-10-11T22:39:52.978Z,12.87
2022-10-11T22:42:24.119Z,12.84
2022-10-11T22:44:53.575Z,12.77
2022-10-11T22:47:20.406Z,12.71
2022-10-11T22:49:47.427Z,12.71
2022-10-11T22:52:14.151Z,12.71
2022-10-11T22:54:40.866Z,12.68
2022-10-11T22:57:15.212Z,12.67
2022-10-11T22:59:41.964Z,12.66
2022-10-11T23:02:09.073Z,12.64
2022-10-11T23:04:35.793Z,12.65
2022-10-11T23:07:04.953Z,12.62
2022-10-11T23:09:32.072Z,12.60
2022-10-11T23:11:59.719Z,12.57
2022-10-11T23:14:26.617Z,12.59
2022-10-11T23:16:53.916Z,12.56
2022-10-11T23:19:20.955Z,12.56
2022-10-11T23:21:47.716Z,12.54
2022-10-11T23:24:14.515Z,12.52
2022-10-11T23:26:41.394Z,12.53
2022-10-11T23:29:08.212Z,12.51
2022-10-11T23:31:35.036Z,12.48
2022-10-11T23:34:02.256Z,12.45
2022-10-11T23:36:29.094Z,12.42
2022-10-11T23:38:58.719Z,12.41
2022-10-11T23:41:29.696Z,12.43
2022-10-11T23:44:00.345Z,12.46
2022-10-11T23:46:27.153Z,12.43
2022-10-11T23:48:53.880Z,12.42
2022-10-11T23:51:25.163Z,12.40
2022-10-11T23:53:51.927Z,12.40
2022-10-11T23:56:18.728Z,12.36
2022-10-11T23:58:45.597Z,12.35
